Wetter

Ora Tempo Temperatura Umidità Vento Precipitazioni
00:00 Klarer Himmel 7.2° 66% 4.43 km/h 0 mm
03:00 Klarer Himmel 6.4° 66% 3.1 km/h 0 mm
06:00 Klarer Himmel 5.4° 65% 2.91 km/h 0 mm
09:00 Klarer Himmel 7.4° 55% 2.43 km/h 0 mm
12:00 Ein paar Wolken 10.2° 53% 2.2 km/h 0 mm
15:00 Mäßig bewölkt 10.2° 60% 1.26 km/h 0 mm
18:00 Mäßig bewölkt 9.1° 62% 1.11 km/h 0 mm
21:00 Überwiegend bewölkt 7.7° 66% 3.21 km/h 0 mm
Ora Tempo Temperatura Umidità Vento Precipitazioni
00:00 Überwiegend bewölkt 7.3° 58% 2.74 km/h 0 mm
03:00 Bedeckt 8.1° 57% 4.66 km/h 0 mm
06:00 Bedeckt 9.0° 70% 4.39 km/h 0 mm
09:00 Mäßiger Regen 12.0° 87% 9.64 km/h 6.81 mm
12:00 Leichter Regen 14.4° 82% 12.1 km/h 2.98 mm
15:00 Leichter Regen 14.8° 84% 9.88 km/h 2.08 mm
18:00 Leichter Regen 12.2° 71% 8.02 km/h 2.22 mm
21:00 Leichter Regen 10.1° 78% 1.75 km/h 1.10 mm
Ora Tempo Temperatura Umidità Vento Precipitazioni
00:00 Mäßiger Regen 10.5° 78% 5.08 km/h 5.48 mm
03:00 Mäßiger Regen 9.0° 80% 8.07 km/h 11.87 mm
06:00 Mäßiger Regen 10.7° 65% 10.1 km/h 3.08 mm
09:00 Leichter Regen 10.9° 59% 5.38 km/h 0.54 mm
12:00 Leichter Regen 10.7° 59% 0.58 km/h 1.62 mm
15:00 Leichter Regen 9.9° 67% 4.2 km/h 1.21 mm
18:00 Leichter Regen 9.1° 71% 5.7 km/h 1.91 mm
21:00 Leichter Regen 8.1° 73% 3.96 km/h 0.75 mm
Ora Tempo Temperatura Umidità Vento Precipitazioni
00:00 Leichter Regen 7.1° 78% 2.1 km/h 0.58 mm
03:00 Leichter Regen 6.6° 79% 2.14 km/h 0.34 mm
06:00 Mäßig bewölkt 6.4° 76% 2.38 km/h 0 mm
09:00 Überwiegend bewölkt 7.5° 73% 3.47 km/h 0 mm
12:00 Überwiegend bewölkt 10.0° 70% 6.74 km/h 0 mm
15:00 Leichter Regen 11.0° 73% 7.44 km/h 0.23 mm
18:00 Leichter Regen 11.3° 72% 6.58 km/h 1.85 mm
21:00 Leichter Regen 10.4° 71% 5.05 km/h 1.73 mm
Ora Tempo Temperatura Umidità Vento Precipitazioni
00:00 Leichter Regen 8.9° 74% 4.38 km/h 1.00 mm
03:00 Leichter Regen 7.3° 83% 5.02 km/h 0.49 mm
06:00 Mäßiger Regen 5.0° 94% 8.67 km/h 9.11 mm
09:00 Mäßiger Regen 6.0° 89% 7.82 km/h 4.14 mm
12:00 Leichter Regen 8.2° 82% 9.17 km/h 0.18 mm
15:00 Bedeckt 8.2° 79% 7.51 km/h 0 mm
18:00 Bedeckt 7.7° 72% 6.37 km/h 0 mm
21:00 Bedeckt 7.6° 62% 6.51 km/h 0 mm
Dienstag 07 Dezember
Temp. max: 10.2°
Temp. min: 5.4°
Ora Tempo Temperatura Umidità Vento Precipitazioni
00:00 Klarer Himmel 7.2° 66% 4.43 km/h 0 mm
03:00 Klarer Himmel 6.4° 66% 3.1 km/h 0 mm
06:00 Klarer Himmel 5.4° 65% 2.91 km/h 0 mm
09:00 Klarer Himmel 7.4° 55% 2.43 km/h 0 mm
12:00 Ein paar Wolken 10.2° 53% 2.2 km/h 0 mm
15:00 Mäßig bewölkt 10.2° 60% 1.26 km/h 0 mm
18:00 Mäßig bewölkt 9.1° 62% 1.11 km/h 0 mm
21:00 Überwiegend bewölkt 7.7° 66% 3.21 km/h 0 mm
Mittwoch 08 Dezember
Temp. max: 14.8°
Temp. min: 7.3°
Ora Tempo Temperatura Umidità Vento Precipitazioni
00:00 Überwiegend bewölkt 7.3° 58% 2.74 km/h 0 mm
03:00 Bedeckt 8.1° 57% 4.66 km/h 0 mm
06:00 Bedeckt 9.0° 70% 4.39 km/h 0 mm
09:00 Mäßiger Regen 12.0° 87% 9.64 km/h 6.81 mm
12:00 Leichter Regen 14.4° 82% 12.1 km/h 2.98 mm
15:00 Leichter Regen 14.8° 84% 9.88 km/h 2.08 mm
18:00 Leichter Regen 12.2° 71% 8.02 km/h 2.22 mm
21:00 Leichter Regen 10.1° 78% 1.75 km/h 1.10 mm
Donnerstag 09 Dezember
Temp. max: 10.9°
Temp. min: 8.1°
Ora Tempo Temperatura Umidità Vento Precipitazioni
00:00 Mäßiger Regen 10.5° 78% 5.08 km/h 5.48 mm
03:00 Mäßiger Regen 9.0° 80% 8.07 km/h 11.87 mm
06:00 Mäßiger Regen 10.7° 65% 10.1 km/h 3.08 mm
09:00 Leichter Regen 10.9° 59% 5.38 km/h 0.54 mm
12:00 Leichter Regen 10.7° 59% 0.58 km/h 1.62 mm
15:00 Leichter Regen 9.9° 67% 4.2 km/h 1.21 mm
18:00 Leichter Regen 9.1° 71% 5.7 km/h 1.91 mm
21:00 Leichter Regen 8.1° 73% 3.96 km/h 0.75 mm
Freitag 10 Dezember
Temp. max: 11.3°
Temp. min: 6.4°
Ora Tempo Temperatura Umidità Vento Precipitazioni
00:00 Leichter Regen 7.1° 78% 2.1 km/h 0.58 mm
03:00 Leichter Regen 6.6° 79% 2.14 km/h 0.34 mm
06:00 Mäßig bewölkt 6.4° 76% 2.38 km/h 0 mm
09:00 Überwiegend bewölkt 7.5° 73% 3.47 km/h 0 mm
12:00 Überwiegend bewölkt 10.0° 70% 6.74 km/h 0 mm
15:00 Leichter Regen 11.0° 73% 7.44 km/h 0.23 mm
18:00 Leichter Regen 11.3° 72% 6.58 km/h 1.85 mm
21:00 Leichter Regen 10.4° 71% 5.05 km/h 1.73 mm
Samstag 11 Dezember
Temp. max: 8.9°
Temp. min: 5.0°
Ora Tempo Temperatura Umidità Vento Precipitazioni
00:00 Leichter Regen 8.9° 74% 4.38 km/h 1.00 mm
03:00 Leichter Regen 7.3° 83% 5.02 km/h 0.49 mm
06:00 Mäßiger Regen 5.0° 94% 8.67 km/h 9.11 mm
09:00 Mäßiger Regen 6.0° 89% 7.82 km/h 4.14 mm
12:00 Leichter Regen 8.2° 82% 9.17 km/h 0.18 mm
15:00 Bedeckt 8.2° 79% 7.51 km/h 0 mm
18:00 Bedeckt 7.7° 72% 6.37 km/h 0 mm
21:00 Bedeckt 7.6° 62% 6.51 km/h 0 mm

Live Cam

VUOI RICEVERE PIÚ INFORMAZIONI SUI NOSTRI SERVIZI?

Usa la form di contatti sul sito o contattaci telefonicamente